createdAt,value
2023-01-31T00:01:22.924Z,4.46
2023-01-31T00:03:56.645Z,4.48
2023-01-31T00:06:25.148Z,4.49
2023-01-31T00:08:52.594Z,4.48
2023-01-31T00:11:21.174Z,4.54
2023-01-31T00:13:48.258Z,4.58
2023-01-31T00:16:15.973Z,4.58
2023-01-31T00:18:43.148Z,4.57
2023-01-31T00:21:18.485Z,4.54
2023-01-31T00:23:46.260Z,4.57
2023-01-31T00:26:18.204Z,4.46
2023-01-31T00:28:45.678Z,4.44
2023-01-31T00:31:13.584Z,4.43
2023-01-31T00:33:41.569Z,4.44
2023-01-31T00:36:10.937Z,4.33
2023-01-31T00:38:38.740Z,4.44
2023-01-31T00:41:05.954Z,4.54
2023-01-31T00:43:33.188Z,4.54
2023-01-31T00:46:00.308Z,4.55
2023-01-31T00:48:27.446Z,4.58
2023-01-31T00:50:54.001Z,4.59
2023-01-31T00:53:23.859Z,4.58
2023-01-31T00:55:51.787Z,4.52
2023-01-31T00:58:18.376Z,4.58
2023-01-31T01:00:44.943Z,4.64
2023-01-31T01:03:11.776Z,4.63
2023-01-31T01:05:38.287Z,4.47
2023-01-31T01:08:05.201Z,4.54
2023-01-31T01:10:32.255Z,4.60
2023-01-31T01:12:58.815Z,4.61
2023-01-31T01:15:25.340Z,4.69
2023-01-31T01:17:52.013Z,4.62
2023-01-31T01:20:19.936Z,4.71
2023-01-31T01:22:46.494Z,4.75
2023-01-31T01:25:14.007Z,4.77
2023-01-31T01:27:40.497Z,4.76
2023-01-31T01:30:07.971Z,4.82
2023-01-31T01:32:34.836Z,4.74
2023-01-31T01:35:01.514Z,4.74
2023-01-31T01:37:28.008Z,4.74
2023-01-31T01:39:54.627Z,4.70
2023-01-31T01:42:25.261Z,4.65
2023-01-31T01:44:57.371Z,4.70
2023-01-31T01:47:45.370Z,4.79
2023-01-31T01:50:17.262Z,4.84
2023-01-31T01:52:47.822Z,4.60
2023-01-31T01:55:20.584Z,4.73
2023-01-31T01:57:51.482Z,4.87
2023-01-31T02:00:24.207Z,4.85
2023-01-31T02:02:54.670Z,4.85
2023-01-31T02:05:26.983Z,4.77
2023-01-31T02:07:53.376Z,4.70
2023-01-31T02:10:31.532Z,4.79
2023-01-31T02:12:58.509Z,4.82
2023-01-31T02:15:28.403Z,4.79
2023-01-31T02:17:54.887Z,4.94
2023-01-31T02:20:50.609Z,5.01
2023-01-31T02:23:33.595Z,5.01
2023-01-31T02:26:27.020Z,5.02
2023-01-31T02:29:03.497Z,4.99
2023-01-31T02:31:45.667Z,4.94
2023-01-31T02:34:35.821Z,4.93
2023-01-31T02:37:18.203Z,4.89
2023-01-31T02:40:08.367Z,4.78
2023-01-31T02:42:48.234Z,4.73
2023-01-31T02:45:40.917Z,4.64
2023-01-31T02:48:19.348Z,4.67
2023-01-31T02:51:01.335Z,4.61
2023-01-31T02:53:37.144Z,4.57
2023-01-31T02:56:14.706Z,4.55
2023-01-31T02:58:45.081Z,4.56
2023-01-31T03:01:15.564Z,4.53
2023-01-31T03:03:42.082Z,4.42
2023-01-31T03:06:22.987Z,4.40
2023-01-31T03:09:21.998Z,4.33
2023-01-31T03:12:04.049Z,4.34
2023-01-31T03:14:36.395Z,4.25
2023-01-31T03:17:33.190Z,4.23
2023-01-31T03:20:17.759Z,4.16
2023-01-31T03:22:48.735Z,4.24
2023-01-31T03:25:17.111Z,4.00
2023-01-31T03:27:49.563Z,4.04
2023-01-31T03:30:22.964Z,4.02
2023-01-31T03:32:53.925Z,4.01
2023-01-31T03:35:26.188Z,4.07
2023-01-31T03:37:59.652Z,4.04
2023-01-31T03:41:01.185Z,4.06
2023-01-31T03:43:32.506Z,3.96
2023-01-31T03:46:40.198Z,3.97
2023-01-31T03:49:09.209Z,4.02
2023-01-31T03:51:38.008Z,3.88
2023-01-31T03:54:09.076Z,3.85
2023-01-31T03:56:46.232Z,3.86
2023-01-31T03:59:16.529Z,3.90
2023-01-31T04:01:48.697Z,3.98
2023-01-31T04:04:24.746Z,3.94
2023-01-31T04:06:51.472Z,3.93
2023-01-31T04:09:22.872Z,3.94
2023-01-31T04:11:50.344Z,3.96
2023-01-31T04:14:17.455Z,3.91
2023-01-31T04:16:44.197Z,3.93
2023-01-31T04:19:10.820Z,3.88
2023-01-31T04:21:37.903Z,3.82
2023-01-31T04:24:04.490Z,3.87
2023-01-31T04:26:31.101Z,3.86
2023-01-31T04:28:57.673Z,3.82
2023-01-31T04:31:24.267Z,3.79
2023-01-31T04:33:50.776Z,3.85
2023-01-31T04:36:17.273Z,3.84
2023-01-31T04:38:43.818Z,3.81
2023-01-31T04:41:10.947Z,3.77
2023-01-31T04:43:37.456Z,3.86
2023-01-31T04:46:04.178Z,3.88
2023-01-31T04:48:30.791Z,3.86
2023-01-31T04:50:57.308Z,3.92
2023-01-31T04:53:23.801Z,3.87
2023-01-31T04:55:50.371Z,3.95
2023-01-31T04:58:17.039Z,3.95
2023-01-31T05:00:45.009Z,4.05
2023-01-31T05:03:11.804Z,4.11
2023-01-31T05:05:38.422Z,4.10
2023-01-31T05:08:05.628Z,4.10
2023-01-31T05:10:32.718Z,4.03
2023-01-31T05:12:59.265Z,4.15
2023-01-31T05:15:25.795Z,4.17
2023-01-31T05:17:53.464Z,4.21
2023-01-31T05:20:19.990Z,4.15
2023-01-31T05:22:49.377Z,4.19
2023-01-31T05:25:15.953Z,4.14
2023-01-31T05:27:43.734Z,4.18
2023-01-31T05:30:11.170Z,4.20
2023-01-31T05:32:37.764Z,4.25
2023-01-31T05:35:04.456Z,4.23
2023-01-31T05:37:31.438Z,4.28
2023-01-31T05:39:57.997Z,4.27
2023-01-31T05:42:24.537Z,4.29
2023-01-31T05:44:51.006Z,4.38
2023-01-31T05:47:17.511Z,4.49
2023-01-31T05:49:44.049Z,4.55
2023-01-31T05:52:10.511Z,4.54
2023-01-31T05:54:36.970Z,4.55
2023-01-31T05:57:03.475Z,4.60
2023-01-31T05:59:32.294Z,4.64
2023-01-31T06:01:58.841Z,4.70
2023-01-31T06:04:25.335Z,4.65
2023-01-31T06:06:51.976Z,4.65
2023-01-31T06:09:18.535Z,4.69
2023-01-31T06:11:45.213Z,4.67
2023-01-31T06:14:11.756Z,4.67
2023-01-31T06:16:38.433Z,4.68
2023-01-31T06:19:05.020Z,4.74
2023-01-31T06:21:32.028Z,4.79
2023-01-31T06:23:58.658Z,4.79
2023-01-31T06:26:25.219Z,4.83
2023-01-31T06:28:51.763Z,4.85
2023-01-31T06:31:18.623Z,4.87
2023-01-31T06:33:47.777Z,4.88
2023-01-31T06:36:18.639Z,4.81
2023-01-31T06:38:49.087Z,4.86
2023-01-31T06:41:16.264Z,4.84
2023-01-31T06:43:42.779Z,4.92
2023-01-31T06:46:09.417Z,4.87
2023-01-31T06:48:35.974Z,4.95
2023-01-31T06:51:02.939Z,4.89
2023-01-31T06:53:29.411Z,4.91
2023-01-31T06:55:56.371Z,4.92
2023-01-31T06:58:22.888Z,4.98
2023-01-31T07:00:49.523Z,4.93
2023-01-31T07:03:16.027Z,4.95
2023-01-31T07:05:42.799Z,4.99
2023-01-31T07:08:09.280Z,5.03
2023-01-31T07:10:35.800Z,5.05
2023-01-31T07:13:02.331Z,5.05
2023-01-31T07:15:29.112Z,5.10
2023-01-31T07:18:01.744Z,5.08
2023-01-31T07:20:28.496Z,5.11
2023-01-31T07:22:58.641Z,5.16
2023-01-31T07:25:26.520Z,5.18
2023-01-31T07:27:53.058Z,5.13
2023-01-31T07:30:19.668Z,5.07
2023-01-31T07:32:46.332Z,5.09
2023-01-31T07:35:12.820Z,5.09
2023-01-31T07:37:40.678Z,5.09
2023-01-31T07:40:07.875Z,5.13
2023-01-31T07:42:34.373Z,5.11
2023-01-31T07:45:20.951Z,5.12
2023-01-31T07:47:49.562Z,5.18
2023-01-31T07:50:16.096Z,5.22
2023-01-31T07:52:42.576Z,5.25
2023-01-31T07:55:09.123Z,5.31
2023-01-31T07:57:35.703Z,5.32
2023-01-31T08:00:02.264Z,5.34
2023-01-31T08:02:56.609Z,5.35
2023-01-31T08:05:23.555Z,5.31
2023-01-31T08:08:10.448Z,5.39
2023-01-31T08:10:37.420Z,5.34
2023-01-31T08:13:04.323Z,5.40
2023-01-31T08:15:30.835Z,5.44
2023-01-31T08:17:57.423Z,5.29
2023-01-31T08:20:23.933Z,5.34
2023-01-31T08:22:50.474Z,5.39
2023-01-31T08:25:18.958Z,5.33
2023-01-31T08:27:46.657Z,5.36
2023-01-31T08:30:13.692Z,5.41
2023-01-31T08:32:40.190Z,5.42
2023-01-31T08:35:07.610Z,5.41
2023-01-31T08:37:34.802Z,5.45
2023-01-31T08:40:01.329Z,5.48
2023-01-31T08:42:27.851Z,5.47
2023-01-31T08:44:55.003Z,5.49
2023-01-31T08:47:21.556Z,5.50
2023-01-31T08:49:48.054Z,5.54
2023-01-31T08:52:14.569Z,5.52
2023-01-31T08:54:41.333Z,5.57
2023-01-31T08:57:08.960Z,5.61
2023-01-31T08:59:35.863Z,5.62
2023-01-31T09:02:02.705Z,5.61
2023-01-31T09:04:29.341Z,5.65
2023-01-31T09:06:55.897Z,5.71
2023-01-31T09:09:22.392Z,5.72
2023-01-31T09:11:48.912Z,5.77
2023-01-31T09:14:15.470Z,5.79
2023-01-31T09:16:43.609Z,5.80
2023-01-31T09:19:10.233Z,5.79
2023-01-31T09:21:36.828Z,5.84
2023-01-31T09:24:03.844Z,5.79
2023-01-31T09:26:31.984Z,5.88
2023-01-31T09:28:58.926Z,5.85
2023-01-31T09:31:25.780Z,5.90
2023-01-31T09:33:52.402Z,5.92
2023-01-31T09:36:20.989Z,5.95
2023-01-31T09:38:47.899Z,6.02
2023-01-31T09:41:32.099Z,6.09
2023-01-31T09:44:05.897Z,6.06
2023-01-31T09:46:37.702Z,6.15
2023-01-31T09:49:07.141Z,6.20
2023-01-31T09:51:38.515Z,6.23
2023-01-31T09:54:08.537Z,6.22
2023-01-31T09:56:43.429Z,6.19
2023-01-31T09:59:16.084Z,6.23
2023-01-31T10:01:50.700Z,6.33
2023-01-31T10:04:44.838Z,6.34
2023-01-31T10:07:20.434Z,6.36
2023-01-31T10:09:59.180Z,6.34
2023-01-31T10:12:34.730Z,6.48
2023-01-31T10:15:06.135Z,6.48
2023-01-31T10:17:38.624Z,6.51
2023-01-31T10:20:08.408Z,6.57
2023-01-31T10:22:40.257Z,6.61
2023-01-31T10:25:32.300Z,6.60
2023-01-31T10:28:20.536Z,6.56
2023-01-31T10:30:56.013Z,6.36
2023-01-31T10:33:38.159Z,6.36
2023-01-31T10:36:21.261Z,6.40
2023-01-31T10:39:21.521Z,6.35
2023-01-31T10:42:04.047Z,6.47
2023-01-31T10:44:43.249Z,6.42
2023-01-31T10:47:13.045Z,6.52
2023-01-31T10:49:40.002Z,6.60
2023-01-31T10:52:18.427Z,6.72
2023-01-31T10:55:26.769Z,6.85
2023-01-31T10:57:53.865Z,6.89
2023-01-31T11:00:27.569Z,6.77
2023-01-31T11:02:54.347Z,6.79
2023-01-31T11:05:23.192Z,6.84
2023-01-31T11:07:50.834Z,6.74
2023-01-31T11:10:23.380Z,6.86
2023-01-31T11:13:01.763Z,6.76
2023-01-31T11:15:30.151Z,6.77
2023-01-31T11:18:01.144Z,6.66
2023-01-31T11:20:29.288Z,6.50
2023-01-31T11:22:56.486Z,6.57
2023-01-31T11:25:24.323Z,6.58
2023-01-31T11:27:54.397Z,6.37
2023-01-31T11:30:27.887Z,6.40
2023-01-31T11:32:54.608Z,6.47
2023-01-31T11:35:25.196Z,6.43
2023-01-31T11:38:04.294Z,6.39
2023-01-31T11:40:37.801Z,6.36
2023-01-31T11:43:25.684Z,6.45
2023-01-31T11:46:00.704Z,6.34
2023-01-31T11:48:33.288Z,6.45
2023-01-31T11:51:03.483Z,6.49
2023-01-31T11:53:50.821Z,6.32
2023-01-31T11:56:23.234Z,6.45
2023-01-31T11:58:53.026Z,6.45
2023-01-31T12:01:22.701Z,6.53
2023-01-31T12:04:02.703Z,6.54
2023-01-31T12:06:37.326Z,6.33
2023-01-31T12:09:06.671Z,6.28
2023-01-31T12:11:35.521Z,6.10
2023-01-31T12:14:16.519Z,6.19
2023-01-31T12:16:44.542Z,6.00
2023-01-31T12:19:14.045Z,5.94
2023-01-31T12:21:49.636Z,5.92
2023-01-31T12:24:41.051Z,5.87
2023-01-31T12:27:20.717Z,5.84
2023-01-31T12:30:11.055Z,5.90
2023-01-31T12:32:49.369Z,5.83
2023-01-31T12:35:46.971Z,5.86
2023-01-31T12:38:22.477Z,5.88
2023-01-31T12:41:04.992Z,5.66
2023-01-31T12:43:48.539Z,5.52
2023-01-31T12:46:24.956Z,5.38
2023-01-31T12:49:03.185Z,5.42
2023-01-31T12:51:40.012Z,5.43
2023-01-31T12:54:06.540Z,5.40
2023-01-31T12:56:42.053Z,5.40
2023-01-31T12:59:25.515Z,5.37
2023-01-31T13:02:14.136Z,5.33
2023-01-31T13:04:53.488Z,5.33
2023-01-31T13:07:36.204Z,5.18
2023-01-31T13:10:05.794Z,5.32
2023-01-31T13:12:35.838Z,5.28
2023-01-31T13:15:10.738Z,5.34
2023-01-31T13:17:39.677Z,5.25
2023-01-31T13:20:12.372Z,5.14
2023-01-31T13:22:47.147Z,5.26
2023-01-31T13:25:22.443Z,5.34
2023-01-31T13:27:57.829Z,5.28
2023-01-31T13:30:33.674Z,5.16
2023-01-31T13:33:06.808Z,5.23
2023-01-31T13:35:37.536Z,5.20
2023-01-31T13:38:08.515Z,5.07
2023-01-31T13:40:47.039Z,5.12
2023-01-31T13:43:15.780Z,5.09
2023-01-31T13:45:52.759Z,5.11
2023-01-31T13:48:23.920Z,5.15
2023-01-31T13:50:54.134Z,5.09
2023-01-31T13:53:26.603Z,5.16
2023-01-31T13:55:53.609Z,5.22
2023-01-31T13:58:23.351Z,5.21
2023-01-31T14:00:59.233Z,5.22
2023-01-31T14:03:26.280Z,5.29
2023-01-31T14:05:54.152Z,5.21
2023-01-31T14:08:50.485Z,5.29
2023-01-31T14:11:17.105Z,5.28
2023-01-31T14:13:46.529Z,5.33
2023-01-31T14:16:31.812Z,5.23
2023-01-31T14:18:58.486Z,5.27
2023-01-31T14:21:31.001Z,5.34
2023-01-31T14:24:02.090Z,5.35
2023-01-31T14:26:31.372Z,5.27
2023-01-31T14:28:58.460Z,5.32
2023-01-31T14:31:26.775Z,5.39
2023-01-31T14:33:57.365Z,5.38
2023-01-31T14:36:47.441Z,5.36
2023-01-31T14:39:38.265Z,5.30
2023-01-31T14:42:26.400Z,5.32
2023-01-31T14:45:15.821Z,5.39
2023-01-31T14:48:09.521Z,5.41
2023-01-31T14:50:48.189Z,5.37
2023-01-31T14:53:21.278Z,5.46
2023-01-31T14:56:01.018Z,5.42
2023-01-31T14:58:29.557Z,5.48
2023-01-31T15:00:58.780Z,5.54
2023-01-31T15:03:31.793Z,5.52
2023-01-31T15:06:15.731Z,5.54
2023-01-31T15:08:45.153Z,5.53
2023-01-31T15:11:14.822Z,5.56
2023-01-31T15:13:50.564Z,5.59
2023-01-31T15:16:24.086Z,5.60
2023-01-31T15:19:20.746Z,5.63
2023-01-31T15:22:04.550Z,5.66
2023-01-31T15:24:50.295Z,5.66
2023-01-31T15:27:25.782Z,5.71
2023-01-31T15:29:58.378Z,5.73
2023-01-31T15:32:30.172Z,5.68
2023-01-31T15:35:05.449Z,5.68
2023-01-31T15:37:33.851Z,5.73
2023-01-31T15:40:22.728Z,5.79
2023-01-31T15:42:49.940Z,5.75
2023-01-31T15:45:30.227Z,5.81
2023-01-31T15:48:00.874Z,5.80
2023-01-31T15:50:32.029Z,5.88
2023-01-31T15:53:15.121Z,5.92
2023-01-31T15:55:41.864Z,5.94
2023-01-31T15:58:17.587Z,5.84
2023-01-31T16:00:44.623Z,5.85
2023-01-31T16:03:20.411Z,5.88
2023-01-31T16:05:50.330Z,5.94
2023-01-31T16:08:22.022Z,5.94
2023-01-31T16:10:49.196Z,5.99
2023-01-31T16:13:16.492Z,6.07
2023-01-31T16:15:44.074Z,6.07
2023-01-31T16:18:11.708Z,6.06
2023-01-31T16:20:55.494Z,6.11
2023-01-31T16:23:32.211Z,6.12
2023-01-31T16:26:06.090Z,6.10
2023-01-31T16:28:41.381Z,6.11
2023-01-31T16:31:13.031Z,6.19
2023-01-31T16:33:47.366Z,6.24
2023-01-31T16:36:17.483Z,6.25
2023-01-31T16:38:44.898Z,6.17
2023-01-31T16:41:12.946Z,6.19
2023-01-31T16:43:41.870Z,6.25
2023-01-31T16:46:35.752Z,6.29
2023-01-31T16:49:05.189Z,6.26
2023-01-31T16:51:31.652Z,6.25
2023-01-31T16:54:22.090Z,6.34
2023-01-31T16:57:05.657Z,6.32
2023-01-31T16:59:39.113Z,6.33
2023-01-31T17:02:08.561Z,6.35
2023-01-31T17:04:38.775Z,6.38
2023-01-31T17:07:08.069Z,6.39
2023-01-31T17:09:35.615Z,6.37
2023-01-31T17:12:02.247Z,6.36
2023-01-31T17:14:29.891Z,6.29
2023-01-31T17:16:56.452Z,6.41
2023-01-31T17:19:23.506Z,6.40
2023-01-31T17:21:50.371Z,6.36
2023-01-31T17:24:19.342Z,6.42
2023-01-31T17:26:45.979Z,6.42
2023-01-31T17:29:12.625Z,6.45
2023-01-31T17:31:39.407Z,6.46
2023-01-31T17:34:11.821Z,6.27
2023-01-31T17:36:38.341Z,6.38
2023-01-31T17:39:04.841Z,6.37
2023-01-31T17:41:31.319Z,6.39
2023-01-31T17:43:57.844Z,6.45
2023-01-31T17:46:24.346Z,6.44
2023-01-31T17:48:50.908Z,6.51
2023-01-31T17:51:18.042Z,6.51
2023-01-31T17:53:49.710Z,6.48
2023-01-31T17:56:17.943Z,6.48
2023-01-31T17:58:44.463Z,6.51
2023-01-31T18:01:13.883Z,6.40
2023-01-31T18:03:40.911Z,6.46
2023-01-31T18:06:08.198Z,6.51
2023-01-31T18:08:35.126Z,6.46
2023-01-31T18:11:10.323Z,6.51
2023-01-31T18:13:38.408Z,6.46
2023-01-31T18:16:10.161Z,6.51
2023-01-31T18:18:40.284Z,6.55
2023-01-31T18:21:14.667Z,6.56
2023-01-31T18:23:41.301Z,6.59
2023-01-31T18:26:09.038Z,6.59
2023-01-31T18:28:36.032Z,6.69
2023-01-31T18:31:14.868Z,6.59
2023-01-31T18:33:46.545Z,6.66
2023-01-31T18:36:15.888Z,6.69
2023-01-31T18:38:43.845Z,6.74
2023-01-31T18:41:14.262Z,6.83
2023-01-31T18:43:41.627Z,6.81
2023-01-31T18:46:10.127Z,6.85
2023-01-31T18:48:39.728Z,6.87
2023-01-31T18:51:08.546Z,6.90
2023-01-31T18:53:36.118Z,6.95
2023-01-31T18:56:05.815Z,6.94
2023-01-31T18:58:37.429Z,6.92
2023-01-31T19:01:17.440Z,6.94
2023-01-31T19:03:46.122Z,6.97
2023-01-31T19:06:17.847Z,6.93
2023-01-31T19:08:50.616Z,6.99
2023-01-31T19:11:18.829Z,7.01
2023-01-31T19:13:45.808Z,6.99
2023-01-31T19:16:14.500Z,6.93
2023-01-31T19:18:41.513Z,6.95
2023-01-31T19:21:28.597Z,6.93
2023-01-31T19:23:57.399Z,6.97
2023-01-31T19:26:24.049Z,7.03
2023-01-31T19:28:50.701Z,6.97
2023-01-31T19:31:19.917Z,6.99
2023-01-31T19:33:51.150Z,7.01
2023-01-31T19:36:23.496Z,7.00
2023-01-31T19:38:50.243Z,6.97
2023-01-31T19:41:19.384Z,6.92
2023-01-31T19:43:47.885Z,6.66
2023-01-31T19:46:14.484Z,5.97
2023-01-31T19:48:41.230Z,5.72
2023-01-31T19:51:10.027Z,5.45
2023-01-31T19:53:36.992Z,5.36
2023-01-31T19:56:03.986Z,5.38
2023-01-31T19:58:33.254Z,5.07
2023-01-31T20:01:05.959Z,5.20
2023-01-31T20:03:32.514Z,5.20
2023-01-31T20:06:06.531Z,5.12
2023-01-31T20:08:33.075Z,5.22
2023-01-31T20:10:59.727Z,5.29
2023-01-31T20:13:26.313Z,5.26
2023-01-31T20:16:03.217Z,5.31
2023-01-31T20:18:31.029Z,5.42
2023-01-31T20:20:57.648Z,5.47
2023-01-31T20:23:24.412Z,5.37
2023-01-31T20:25:52.759Z,5.48
2023-01-31T20:28:20.026Z,5.43
2023-01-31T20:30:47.067Z,5.47
2023-01-31T20:33:14.315Z,5.52
2023-01-31T20:35:41.117Z,5.50
2023-01-31T20:38:08.513Z,5.52
2023-01-31T20:40:35.441Z,5.49
2023-01-31T20:43:01.970Z,5.50
2023-01-31T20:45:29.202Z,5.47
2023-01-31T20:47:56.865Z,5.51
2023-01-31T20:50:24.088Z,5.43
2023-01-31T20:52:51.419Z,5.45
2023-01-31T20:55:18.443Z,5.38
2023-01-31T20:57:49.841Z,5.35
2023-01-31T21:00:18.242Z,5.37
2023-01-31T21:02:45.193Z,5.29
2023-01-31T21:05:12.213Z,5.35
2023-01-31T21:07:39.105Z,5.28
2023-01-31T21:10:06.620Z,5.28
2023-01-31T21:12:33.239Z,5.38
2023-01-31T21:14:59.754Z,5.39
2023-01-31T21:17:39.224Z,5.36
2023-01-31T21:20:07.742Z,5.34
2023-01-31T21:22:34.422Z,5.40
2023-01-31T21:25:00.972Z,5.46
2023-01-31T21:27:27.540Z,5.47
2023-01-31T21:29:54.097Z,5.53
2023-01-31T21:32:20.615Z,5.58
2023-01-31T21:34:47.137Z,5.63
2023-01-31T21:37:13.676Z,5.70
2023-01-31T21:39:40.151Z,5.74
2023-01-31T21:42:15.744Z,5.75
2023-01-31T21:44:46.727Z,5.80
2023-01-31T21:47:14.389Z,5.78
2023-01-31T21:49:41.200Z,5.86
2023-01-31T21:52:07.831Z,5.84
2023-01-31T21:54:34.496Z,5.87
2023-01-31T21:57:01.027Z,5.79
2023-01-31T21:59:27.590Z,5.77
2023-01-31T22:01:54.225Z,5.69
2023-01-31T22:04:21.085Z,5.52
2023-01-31T22:06:50.474Z,5.25
2023-01-31T22:09:17.788Z,5.35
2023-01-31T22:11:45.465Z,5.31
2023-01-31T22:14:13.855Z,5.29
2023-01-31T22:16:41.214Z,5.22
2023-01-31T22:19:09.549Z,5.18
2023-01-31T22:21:37.011Z,5.19
2023-01-31T22:24:05.945Z,5.17
2023-01-31T22:26:35.299Z,5.14
2023-01-31T22:29:04.597Z,5.18
2023-01-31T22:31:31.961Z,5.10
2023-01-31T22:34:00.221Z,5.14
2023-01-31T22:36:27.447Z,4.98
2023-01-31T22:38:54.701Z,4.97
2023-01-31T22:41:21.845Z,4.96
2023-01-31T22:43:50.251Z,5.08
2023-01-31T22:46:25.446Z,5.07
2023-01-31T22:48:52.734Z,5.06
2023-01-31T22:51:21.584Z,5.07
2023-01-31T22:53:48.588Z,5.04
2023-01-31T22:56:21.087Z,5.07
2023-01-31T22:58:48.253Z,5.07
2023-01-31T23:01:21.233Z,5.04
2023-01-31T23:03:48.384Z,5.11
2023-01-31T23:06:16.189Z,5.05
2023-01-31T23:08:43.364Z,4.92
2023-01-31T23:11:12.596Z,5.00
2023-01-31T23:13:39.659Z,5.09
2023-01-31T23:16:07.374Z,5.12
2023-01-31T23:18:34.463Z,5.17
2023-01-31T23:21:11.100Z,5.19
2023-01-31T23:23:37.625Z,5.24
2023-01-31T23:26:05.133Z,5.32
2023-01-31T23:28:31.951Z,5.32
2023-01-31T23:30:58.746Z,5.36
2023-01-31T23:33:25.361Z,5.31
2023-01-31T23:35:51.943Z,5.39
2023-01-31T23:38:18.692Z,5.43
2023-01-31T23:40:50.511Z,5.47
2023-01-31T23:43:17.010Z,5.51
2023-01-31T23:45:43.596Z,5.47
2023-01-31T23:48:10.155Z,5.46
2023-01-31T23:50:37.577Z,5.35
2023-01-31T23:53:04.379Z,5.40
2023-01-31T23:55:30.980Z,5.35
2023-01-31T23:57:57.531Z,5.39
